createdAt,value
2022-10-17T00:02:25.582Z,101438.47
2022-10-17T00:04:52.703Z,101439.47
2022-10-17T00:07:19.547Z,101434.56
2022-10-17T00:09:46.402Z,101430.34
2022-10-17T00:12:13.506Z,101437.50
2022-10-17T00:14:40.353Z,101437.69
2022-10-17T00:17:07.255Z,101438.03
2022-10-17T00:19:34.341Z,101437.19
2022-10-17T00:22:01.345Z,101440.09
2022-10-17T00:24:29.459Z,101436.72
2022-10-17T00:26:56.544Z,101433.13
2022-10-17T00:29:23.915Z,101437.44
2022-10-17T00:34:29.279Z,101435.75
2022-10-17T00:36:56.845Z,101437.06
2022-10-17T00:39:25.029Z,101439.12
2022-10-17T00:41:52.123Z,101446.09
2022-10-17T00:44:28.968Z,101442.16
2022-10-17T00:46:57.302Z,101440.44
2022-10-17T00:49:26.795Z,101445.91
2022-10-17T00:51:56.221Z,101445.50
2022-10-17T00:54:26.055Z,101439.66
2022-10-17T00:56:53.011Z,101443.41
2022-10-17T00:59:21.914Z,101441.03
2022-10-17T01:02:10.133Z,101437.37
2022-10-17T01:04:37.860Z,101438.13
2022-10-17T01:07:05.858Z,101440.41
2022-10-17T01:09:32.833Z,101439.81
2022-10-17T01:12:18.211Z,101441.13
2022-10-17T01:15:03.568Z,101439.03
2022-10-17T01:18:01.707Z,101431.53
2022-10-17T01:21:06.207Z,101431.81
2022-10-17T01:24:00.685Z,101432.47
2022-10-17T01:26:44.306Z,101437.84
2022-10-17T01:29:26.733Z,101427.78
2022-10-17T01:32:15.605Z,101433.75
2022-10-17T01:35:03.015Z,101430.78
2022-10-17T01:37:50.448Z,101432.66
2022-10-17T01:40:21.960Z,101429.69
2022-10-17T01:42:57.088Z,101431.38
2022-10-17T01:45:42.212Z,101422.38
2022-10-17T01:48:15.355Z,101424.06
2022-10-17T01:50:46.906Z,101423.56
2022-10-17T01:53:18.434Z,101423.31
2022-10-17T01:55:45.836Z,101427.53
2022-10-17T01:58:26.891Z,101432.56
2022-10-17T02:00:55.815Z,101436.03
2022-10-17T02:03:24.611Z,101430.88
2022-10-17T02:05:51.598Z,101437.44
2022-10-17T02:08:26.865Z,101438.34
2022-10-17T02:10:59.735Z,101435.91
2022-10-17T02:14:01.013Z,101435.66
2022-10-17T02:16:35.017Z,101432.56
2022-10-17T02:19:06.143Z,101447.72
2022-10-17T02:21:39.169Z,101440.56
2022-10-17T02:24:12.598Z,101447.72
2022-10-17T02:27:11.881Z,101442.59
2022-10-17T02:29:52.263Z,101445.06
2022-10-17T02:32:50.183Z,101440.75
2022-10-17T02:35:21.055Z,101449.06
2022-10-17T02:37:48.151Z,101441.31
2022-10-17T02:40:17.766Z,101443.19
2022-10-17T02:42:46.019Z,101446.25
2022-10-17T02:45:14.854Z,101450.69
2022-10-17T02:47:47.799Z,101448.06
2022-10-17T02:50:15.341Z,101454.31
2022-10-17T02:52:56.108Z,101452.88
2022-10-17T02:55:32.041Z,101457.03
2022-10-17T02:58:09.015Z,101458.59
2022-10-17T03:00:39.449Z,101461.03
2022-10-17T03:03:21.334Z,101466.22
2022-10-17T03:05:48.487Z,101465.38
2022-10-17T03:08:15.546Z,101459.34
2022-10-17T03:10:42.458Z,101473.72
2022-10-17T03:13:10.150Z,101466.72
2022-10-17T03:15:38.551Z,101469.62
2022-10-17T03:18:05.554Z,101469.62
2022-10-17T03:20:33.558Z,101471.16
2022-10-17T03:23:00.457Z,101475.03
2022-10-17T03:25:28.091Z,101471.31
2022-10-17T03:27:55.345Z,101473.69
2022-10-17T03:30:22.231Z,101478.63
2022-10-17T03:32:50.593Z,101472.22
2022-10-17T03:35:17.797Z,101480.13
2022-10-17T03:37:45.010Z,101487.78
2022-10-17T03:40:13.041Z,101489.81
2022-10-17T03:42:40.477Z,101490.84
2022-10-17T03:45:08.089Z,101500.22
2022-10-17T03:47:35.783Z,101496.12
2022-10-17T03:50:03.670Z,101495.47
2022-10-17T03:52:31.374Z,101504.81
2022-10-17T03:54:58.502Z,101503.63
2022-10-17T03:57:25.675Z,101501.25
2022-10-17T03:59:52.566Z,101512.44
2022-10-17T04:02:19.909Z,101515.09
2022-10-17T04:04:47.085Z,101519.59
2022-10-17T04:07:14.319Z,101514.56
2022-10-17T04:09:42.191Z,101520.44
2022-10-17T04:12:10.425Z,101520.69
2022-10-17T04:14:37.924Z,101520.78
2022-10-17T04:17:04.946Z,101520.41
2022-10-17T04:19:33.086Z,101518.78
2022-10-17T04:21:59.971Z,101517.00
2022-10-17T04:24:27.846Z,101521.84
2022-10-17T04:26:56.023Z,101520.78
2022-10-17T04:29:24.401Z,101527.88
2022-10-17T04:31:52.359Z,101536.56
2022-10-17T04:34:19.597Z,101530.97
2022-10-17T04:36:47.178Z,101540.31
2022-10-17T04:41:47.618Z,101542.69
2022-10-17T04:44:14.845Z,101553.41
2022-10-17T04:46:44.945Z,101541.84
2022-10-17T04:49:14.880Z,101547.22
2022-10-17T04:51:45.850Z,101549.66
2022-10-17T04:54:17.168Z,101554.03
2022-10-17T04:56:44.741Z,101547.03
2022-10-17T04:59:11.790Z,101551.31
2022-10-17T05:01:39.227Z,101555.41
2022-10-17T05:04:06.718Z,101554.59
2022-10-17T05:06:33.685Z,101554.47
2022-10-17T05:09:04.259Z,101559.53
2022-10-17T05:11:31.280Z,101560.25
2022-10-17T05:14:00.457Z,101559.31
2022-10-17T05:16:28.960Z,101556.16
2022-10-17T05:18:57.666Z,101564.16
2022-10-17T05:21:27.681Z,101569.69
2022-10-17T05:23:55.317Z,101571.28
2022-10-17T05:26:23.446Z,101579.13
2022-10-17T05:28:52.468Z,101584.03
2022-10-17T05:31:20.587Z,101588.12
2022-10-17T05:33:47.859Z,101593.06
2022-10-17T05:36:14.895Z,101583.03
2022-10-17T05:38:42.068Z,101586.37
2022-10-17T05:41:10.103Z,101593.00
2022-10-17T05:43:39.214Z,101601.06
2022-10-17T05:46:06.945Z,101603.47
2022-10-17T05:48:35.077Z,101608.28
2022-10-17T05:51:05.485Z,101614.81
2022-10-17T05:53:33.308Z,101614.47
2022-10-17T05:56:03.840Z,101621.97
2022-10-17T05:58:48.822Z,101625.28
2022-10-17T06:01:17.975Z,101620.22
2022-10-17T06:03:45.165Z,101626.34
2022-10-17T06:06:13.606Z,101643.87
2022-10-17T06:08:41.068Z,101646.38
2022-10-17T06:11:10.511Z,101650.66
2022-10-17T06:13:39.329Z,101655.75
2022-10-17T06:16:08.434Z,101668.59
2022-10-17T06:18:35.647Z,101669.97
2022-10-17T06:21:08.182Z,101675.38
2022-10-17T06:23:36.431Z,101672.91
2022-10-17T06:26:05.081Z,101672.06
2022-10-17T06:28:32.757Z,101681.53
2022-10-17T06:31:00.086Z,101681.37
2022-10-17T06:33:27.268Z,101672.38
2022-10-17T06:35:55.625Z,101689.28
2022-10-17T06:38:23.313Z,101693.09
2022-10-17T06:40:51.210Z,101690.25
2022-10-17T06:43:18.088Z,101693.31
2022-10-17T06:45:48.509Z,101697.53
2022-10-17T06:48:16.135Z,101700.94
2022-10-17T06:50:43.173Z,101694.25
2022-10-17T06:53:10.434Z,101700.50
2022-10-17T06:55:38.154Z,101704.03
2022-10-17T06:58:06.298Z,101710.28
2022-10-17T07:00:34.455Z,101708.63
2022-10-17T07:03:02.281Z,101717.22
2022-10-17T07:05:29.159Z,101723.28
2022-10-17T07:07:56.642Z,101716.53
2022-10-17T07:10:23.518Z,101722.56
2022-10-17T07:12:50.385Z,101722.13
2022-10-17T07:15:17.569Z,101709.44
2022-10-17T07:17:48.859Z,101716.28
2022-10-17T07:20:16.985Z,101723.69
2022-10-17T07:22:44.178Z,101712.59
2022-10-17T07:25:11.257Z,101729.88
2022-10-17T07:27:38.452Z,101726.66
2022-10-17T07:30:06.287Z,101727.12
2022-10-17T07:32:33.502Z,101726.81
2022-10-17T07:35:00.411Z,101723.88
2022-10-17T07:37:27.860Z,101720.50
2022-10-17T07:39:56.579Z,101727.97
2022-10-17T07:42:23.561Z,101728.69
2022-10-17T07:44:51.175Z,101732.56
2022-10-17T07:47:19.613Z,101732.06
2022-10-17T07:49:47.076Z,101733.62
2022-10-17T07:52:14.949Z,101736.09
2022-10-17T07:54:41.872Z,101736.50
2022-10-17T07:57:08.868Z,101735.63
2022-10-17T07:59:37.700Z,101742.81
2022-10-17T08:02:04.876Z,101741.38
2022-10-17T08:04:31.999Z,101748.53
2022-10-17T08:07:11.302Z,101738.59
2022-10-17T08:09:47.337Z,101744.28
2022-10-17T08:12:14.930Z,101743.75
2022-10-17T08:14:42.510Z,101748.81
2022-10-17T08:17:09.950Z,101748.59
2022-10-17T08:19:40.505Z,101743.03
2022-10-17T08:22:08.131Z,101749.91
2022-10-17T08:24:35.313Z,101752.84
2022-10-17T08:27:02.209Z,101755.69
2022-10-17T08:29:29.230Z,101758.81
2022-10-17T08:32:01.095Z,101759.88
2022-10-17T08:34:29.338Z,101762.16
2022-10-17T08:36:56.585Z,101762.72
2022-10-17T08:39:23.605Z,101755.03
2022-10-17T08:41:54.194Z,101760.94
2022-10-17T08:44:45.731Z,101754.44
2022-10-17T08:47:36.666Z,101752.69
2022-10-17T08:50:06.209Z,101748.13
2022-10-17T08:52:47.114Z,101749.53
2022-10-17T08:55:40.016Z,101754.50
2022-10-17T08:58:28.333Z,101763.62
2022-10-17T09:01:14.428Z,101760.44
2022-10-17T09:03:51.467Z,101757.09
2022-10-17T09:06:25.199Z,101756.84
2022-10-17T09:09:13.848Z,101757.41
2022-10-17T09:11:57.189Z,101758.31
2022-10-17T09:14:48.539Z,101760.62
2022-10-17T09:17:21.666Z,101759.97
2022-10-17T09:20:13.820Z,101761.28
2022-10-17T09:22:46.062Z,101761.03
2022-10-17T09:25:16.179Z,101760.13
2022-10-17T09:27:44.906Z,101759.66
2022-10-17T09:30:44.225Z,101763.06
2022-10-17T09:33:23.270Z,101762.59
2022-10-17T09:36:00.729Z,101756.44
2022-10-17T09:38:36.986Z,101758.81
2022-10-17T09:41:15.772Z,101755.97
2022-10-17T09:43:56.193Z,101748.63
2022-10-17T09:46:32.880Z,101745.75
2022-10-17T09:49:03.776Z,101752.13
2022-10-17T09:51:31.027Z,101757.78
2022-10-17T09:54:01.999Z,101751.72
2022-10-17T09:56:29.163Z,101742.69
2022-10-17T09:58:57.755Z,101749.91
2022-10-17T10:01:31.581Z,101747.38
2022-10-17T10:04:13.272Z,101750.16
2022-10-17T10:06:43.962Z,101748.06
2022-10-17T10:09:31.824Z,101746.94
2022-10-17T10:12:01.462Z,101745.56
2022-10-17T10:14:33.533Z,101747.12
2022-10-17T10:17:02.506Z,101734.56
2022-10-17T10:19:38.265Z,101741.06
2022-10-17T10:22:16.748Z,101745.41
2022-10-17T10:24:43.841Z,101745.41
2022-10-17T10:27:14.094Z,101743.84
2022-10-17T10:29:49.748Z,101736.53
2022-10-17T10:32:28.232Z,101740.78
2022-10-17T10:35:01.212Z,101736.13
2022-10-17T10:37:41.468Z,101735.69
2022-10-17T10:40:23.590Z,101735.16
2022-10-17T10:42:53.221Z,101733.16
2022-10-17T10:45:46.515Z,101735.41
2022-10-17T10:48:24.132Z,101733.56
2022-10-17T10:50:54.655Z,101735.81
2022-10-17T10:53:35.408Z,101735.09
2022-10-17T10:56:21.547Z,101736.69
2022-10-17T10:58:55.905Z,101730.25
2022-10-17T11:01:29.622Z,101730.56
2022-10-17T11:04:18.779Z,101728.03
2022-10-17T11:06:46.297Z,101728.50
2022-10-17T11:09:24.749Z,101719.94
2022-10-17T11:12:14.787Z,101726.13
2022-10-17T11:14:41.713Z,101715.81
2022-10-17T11:17:17.446Z,101712.91
2022-10-17T11:19:51.921Z,101713.12
2022-10-17T11:22:29.361Z,101715.22
2022-10-17T11:25:00.772Z,101710.84
2022-10-17T11:27:29.554Z,101716.31
2022-10-17T11:29:58.114Z,101711.31
2022-10-17T11:32:32.634Z,101714.50
2022-10-17T11:35:26.804Z,101716.25
2022-10-17T11:38:02.427Z,101708.84
2022-10-17T11:40:33.743Z,101706.66
2022-10-17T11:43:03.654Z,101709.13
2022-10-17T11:45:35.035Z,101703.81
2022-10-17T11:48:06.486Z,101696.59
2022-10-17T11:53:24.963Z,101698.91
2022-10-17T11:55:53.475Z,101700.00
2022-10-17T11:58:37.693Z,101693.00
2022-10-17T12:01:26.720Z,101690.41
2022-10-17T12:04:21.606Z,101693.41
2022-10-17T12:07:15.427Z,101680.84
2022-10-17T12:09:49.464Z,101684.19
2022-10-17T12:12:28.350Z,101678.38
2022-10-17T12:15:24.438Z,101677.94
2022-10-17T12:18:16.421Z,101680.44
2022-10-17T12:20:43.734Z,101679.62
2022-10-17T12:23:10.449Z,101680.06
2022-10-17T12:25:48.121Z,101677.44
2022-10-17T12:28:39.927Z,101675.03
2022-10-17T12:31:23.077Z,101670.50
2022-10-17T12:33:58.477Z,101673.25
2022-10-17T12:36:30.923Z,101661.09
2022-10-17T12:39:03.950Z,101660.44
2022-10-17T12:41:39.796Z,101652.22
2022-10-17T12:44:22.393Z,101654.13
2022-10-17T12:47:10.919Z,101662.97
2022-10-17T12:49:39.830Z,101660.81
2022-10-17T12:52:18.639Z,101657.63
2022-10-17T12:55:12.547Z,101651.97
2022-10-17T12:58:00.270Z,101653.13
2022-10-17T13:00:59.522Z,101652.00
2022-10-17T13:03:35.183Z,101648.56
2022-10-17T13:06:05.518Z,101655.69
2022-10-17T13:08:34.894Z,101649.66
2022-10-17T13:11:01.874Z,101644.88
2022-10-17T13:13:49.325Z,101632.28
2022-10-17T13:16:33.950Z,101641.59
2022-10-17T13:19:02.419Z,101640.56
2022-10-17T13:21:30.007Z,101641.03
2022-10-17T13:23:56.966Z,101641.13
2022-10-17T13:26:26.950Z,101646.16
2022-10-17T13:29:02.729Z,101642.12
2022-10-17T13:31:35.613Z,101637.31
2022-10-17T13:34:04.946Z,101640.72
2022-10-17T13:36:33.623Z,101641.00
2022-10-17T13:39:07.621Z,101643.28
2022-10-17T13:41:38.266Z,101639.44
2022-10-17T13:44:14.785Z,101625.03
2022-10-17T13:46:45.825Z,101643.22
2022-10-17T13:49:18.741Z,101632.16
2022-10-17T13:51:48.306Z,101643.09
2022-10-17T13:54:33.786Z,101638.28
2022-10-17T13:57:01.469Z,101639.75
2022-10-17T13:59:37.539Z,101643.28
2022-10-17T14:02:05.961Z,101641.22
2022-10-17T14:04:56.584Z,101645.00
2022-10-17T14:08:10.595Z,101633.72
2022-10-17T14:10:37.859Z,101634.50
2022-10-17T14:13:07.042Z,101634.38
2022-10-17T14:15:35.305Z,101631.53
2022-10-17T14:18:07.785Z,101622.81
2022-10-17T14:24:14.310Z,101627.75
2022-10-17T14:26:52.701Z,101629.19
2022-10-17T14:29:31.649Z,101623.25
2022-10-17T14:32:11.014Z,101619.91
2022-10-17T14:34:39.649Z,101620.78
2022-10-17T14:37:11.805Z,101620.06
2022-10-17T14:39:39.206Z,101621.62
2022-10-17T14:42:06.079Z,101632.34
2022-10-17T14:44:34.402Z,101627.56
2022-10-17T14:47:30.376Z,101635.75
2022-10-17T14:49:52.405Z,101633.22
2022-10-17T14:52:19.370Z,101622.88
2022-10-17T14:54:50.013Z,101621.66
2022-10-17T14:57:27.668Z,101629.31
2022-10-17T14:59:56.340Z,101623.22
2022-10-17T15:02:29.549Z,101617.38
2022-10-17T15:04:57.130Z,101621.38
2022-10-17T15:07:24.266Z,101618.69
2022-10-17T15:09:52.307Z,101618.34
2022-10-17T15:12:21.704Z,101617.56
2022-10-17T15:14:48.858Z,101619.63
2022-10-17T15:17:20.666Z,101608.41
2022-10-17T15:19:48.316Z,101615.66
2022-10-17T15:22:16.215Z,101617.25
2022-10-17T15:24:43.635Z,101618.28
2022-10-17T15:27:16.434Z,101626.94
2022-10-17T15:29:43.515Z,101623.97
2022-10-17T15:32:10.685Z,101621.78
2022-10-17T15:34:37.752Z,101623.75
2022-10-17T15:37:05.736Z,101629.81
2022-10-17T15:39:33.110Z,101622.25
2022-10-17T15:42:00.067Z,101617.34
2022-10-17T15:44:27.254Z,101626.34
2022-10-17T15:46:55.708Z,101628.03
2022-10-17T15:49:22.598Z,101625.19
2022-10-17T15:51:55.128Z,101633.44
2022-10-17T15:54:22.487Z,101627.53
2022-10-17T15:56:53.539Z,101625.81
2022-10-17T15:59:23.257Z,101628.19
2022-10-17T16:01:50.426Z,101634.44
2022-10-17T16:04:18.555Z,101647.59
2022-10-17T16:06:49.251Z,101639.94
2022-10-17T16:09:16.123Z,101631.13
2022-10-17T16:11:46.031Z,101643.94
2022-10-17T16:14:18.100Z,101646.09
2022-10-17T16:16:48.222Z,101646.03
2022-10-17T16:19:17.820Z,101640.31
2022-10-17T16:21:47.548Z,101649.78
2022-10-17T16:24:14.638Z,101653.06
2022-10-17T16:26:43.888Z,101647.44
2022-10-17T16:29:10.824Z,101653.78
2022-10-17T16:31:45.636Z,101653.78
2022-10-17T16:34:14.046Z,101652.97
2022-10-17T16:36:43.525Z,101647.88
2022-10-17T16:39:10.375Z,101645.00
2022-10-17T16:41:38.948Z,101642.94
2022-10-17T16:44:08.475Z,101657.72
2022-10-17T16:46:37.086Z,101656.47
2022-10-17T16:49:05.021Z,101656.59
2022-10-17T16:51:33.792Z,101662.03
2022-10-17T16:54:00.760Z,101666.38
2022-10-17T16:56:32.613Z,101658.03
2022-10-17T16:59:00.802Z,101656.44
2022-10-17T17:01:29.383Z,101655.19
2022-10-17T17:03:56.601Z,101656.03
2022-10-17T17:06:26.713Z,101661.81
2022-10-17T17:08:54.462Z,101663.38
2022-10-17T17:11:22.908Z,101655.94
2022-10-17T17:13:50.190Z,101656.53
2022-10-17T17:16:21.454Z,101656.16
2022-10-17T17:18:51.445Z,101662.62
2022-10-17T17:21:18.541Z,101660.09
2022-10-17T17:23:45.399Z,101661.41
2022-10-17T17:26:20.784Z,101665.28
2022-10-17T17:28:48.763Z,101666.78
2022-10-17T17:31:19.261Z,101667.03
2022-10-17T17:33:46.710Z,101663.22
2022-10-17T17:36:19.634Z,101665.47
2022-10-17T17:38:46.963Z,101667.97
2022-10-17T17:41:15.425Z,101663.50
2022-10-17T17:43:43.406Z,101666.69
2022-10-17T17:46:10.316Z,101675.72
2022-10-17T17:48:38.890Z,101666.28
2022-10-17T17:51:07.227Z,101667.50
2022-10-17T17:53:34.794Z,101657.84
2022-10-17T17:56:06.824Z,101664.41
2022-10-17T17:58:34.635Z,101657.75
2022-10-17T18:01:08.201Z,101672.19
2022-10-17T18:03:35.345Z,101659.12
2022-10-17T18:06:02.194Z,101674.69
2022-10-17T18:08:29.023Z,101676.75
2022-10-17T18:10:58.452Z,101671.63
2022-10-17T18:13:25.294Z,101671.63
2022-10-17T18:15:57.854Z,101667.28
2022-10-17T18:18:26.246Z,101673.84
2022-10-17T18:20:54.312Z,101666.22
2022-10-17T18:23:22.221Z,101672.72
2022-10-17T18:26:03.222Z,101668.44
2022-10-17T18:28:30.516Z,101662.06
2022-10-17T18:30:58.122Z,101662.75
2022-10-17T18:33:25.383Z,101668.72
2022-10-17T18:35:53.520Z,101663.53
2022-10-17T18:38:22.107Z,101668.66
2022-10-17T18:40:50.787Z,101668.56
2022-10-17T18:43:17.757Z,101670.22
2022-10-17T18:45:44.886Z,101665.00
2022-10-17T18:48:11.751Z,101664.37
2022-10-17T18:50:38.984Z,101663.13
2022-10-17T18:53:06.150Z,101662.53
2022-10-17T18:55:33.036Z,101666.97
2022-10-17T18:58:00.682Z,101668.88
2022-10-17T19:00:27.834Z,101669.53
2022-10-17T19:02:54.671Z,101671.00
2022-10-17T19:05:21.547Z,101665.09
2022-10-17T19:07:50.235Z,101669.53
2022-10-17T19:10:17.171Z,101667.37
2022-10-17T19:12:44.026Z,101666.94
2022-10-17T19:15:11.118Z,101670.87
2022-10-17T19:17:37.990Z,101668.63
2022-10-17T19:20:05.334Z,101670.75
2022-10-17T19:22:33.155Z,101670.22
2022-10-17T19:25:00.024Z,101665.94
2022-10-17T19:27:26.929Z,101670.50
2022-10-17T19:29:54.066Z,101670.31
2022-10-17T19:32:22.838Z,101669.66
2022-10-17T19:34:49.897Z,101672.81
2022-10-17T19:37:17.014Z,101671.97
2022-10-17T19:39:43.863Z,101674.63
2022-10-17T19:42:10.993Z,101669.62
2022-10-17T19:44:38.106Z,101674.81
2022-10-17T19:47:04.953Z,101656.50
2022-10-17T19:49:31.819Z,101666.88
2022-10-17T19:51:58.933Z,101668.00
2022-10-17T19:54:25.778Z,101664.06
2022-10-17T19:56:52.623Z,101662.59
2022-10-17T19:59:19.882Z,101668.28
2022-10-17T20:01:46.847Z,101668.66
2022-10-17T20:04:14.085Z,101673.69
2022-10-17T20:06:41.419Z,101671.44
2022-10-17T20:09:11.142Z,101661.47
2022-10-17T20:11:49.223Z,101663.25
2022-10-17T20:14:18.872Z,101659.00
2022-10-17T20:16:50.098Z,101666.38
2022-10-17T20:19:17.035Z,101666.75
2022-10-17T20:21:46.907Z,101669.72
2022-10-17T20:24:16.100Z,101670.84
2022-10-17T20:26:46.378Z,101668.97
2022-10-17T20:29:20.446Z,101665.00
2022-10-17T20:31:47.992Z,101671.22
2022-10-17T20:34:16.898Z,101666.88
2022-10-17T20:36:46.970Z,101665.38
2022-10-17T20:39:18.289Z,101676.34
2022-10-17T20:41:48.434Z,101668.41
2022-10-17T20:44:18.214Z,101671.41
2022-10-17T20:47:00.603Z,101666.34
2022-10-17T20:49:28.404Z,101666.50
2022-10-17T20:51:55.500Z,101661.44
2022-10-17T20:54:22.547Z,101656.53
2022-10-17T20:56:49.456Z,101665.56
2022-10-17T20:59:17.538Z,101660.47
2022-10-17T21:01:47.563Z,101664.25
2022-10-17T21:07:01.726Z,101657.63
2022-10-17T21:09:28.669Z,101652.44
2022-10-17T21:11:56.694Z,101654.59
2022-10-17T21:14:24.804Z,101658.38
2022-10-17T21:16:52.294Z,101657.81
2022-10-17T21:19:19.675Z,101650.91
2022-10-17T21:21:47.132Z,101654.59
2022-10-17T21:24:17.314Z,101654.19
2022-10-17T21:26:50.039Z,101660.97
2022-10-17T21:29:17.148Z,101657.47
2022-10-17T21:31:44.918Z,101664.28
2022-10-17T21:34:24.935Z,101660.75
2022-10-17T21:36:52.473Z,101650.78
2022-10-17T21:39:19.784Z,101653.78
2022-10-17T21:41:46.688Z,101646.22
2022-10-17T21:44:18.779Z,101656.19
2022-10-17T21:46:49.795Z,101657.47
2022-10-17T21:49:21.489Z,101663.78
2022-10-17T21:51:49.233Z,101661.25
2022-10-17T21:54:20.537Z,101654.94
2022-10-17T21:56:47.392Z,101651.44
2022-10-17T21:59:17.057Z,101650.84
2022-10-17T22:01:46.991Z,101650.19
2022-10-17T22:04:18.762Z,101649.50
2022-10-17T22:06:51.317Z,101654.78
2022-10-17T22:09:25.272Z,101649.31
2022-10-17T22:11:54.765Z,101649.06
2022-10-17T22:14:23.523Z,101649.16
2022-10-17T22:16:50.628Z,101652.50
2022-10-17T22:19:21.999Z,101644.75
2022-10-17T22:21:49.440Z,101644.09
2022-10-17T22:26:48.615Z,101643.59
2022-10-17T22:29:15.970Z,101649.47
2022-10-17T22:31:43.039Z,101646.81
2022-10-17T22:34:14.036Z,101644.00
2022-10-17T22:36:41.914Z,101647.66
2022-10-17T22:39:11.735Z,101647.25
2022-10-17T22:41:38.997Z,101637.97
2022-10-17T22:44:06.501Z,101631.34
2022-10-17T22:46:33.458Z,101632.53
2022-10-17T22:49:00.313Z,101639.94
2022-10-17T22:51:27.623Z,101644.47
2022-10-17T22:53:54.516Z,101642.94
2022-10-17T22:56:21.801Z,101639.78
2022-10-17T22:59:08.681Z,101633.06
2022-10-17T23:01:55.349Z,101641.22
2022-10-17T23:04:22.467Z,101630.16
2022-10-17T23:06:49.324Z,101637.47
2022-10-17T23:09:19.039Z,101639.34
2022-10-17T23:11:46.158Z,101634.59
2022-10-17T23:14:15.046Z,101628.38
2022-10-17T23:16:41.889Z,101622.16
2022-10-17T23:19:10.844Z,101623.69
2022-10-17T23:21:37.705Z,101620.91
2022-10-17T23:24:04.801Z,101621.81
2022-10-17T23:26:31.914Z,101609.41
2022-10-17T23:28:58.807Z,101610.28
2022-10-17T23:31:25.704Z,101611.88
2022-10-17T23:33:52.816Z,101612.22
2022-10-17T23:36:20.500Z,101605.09
2022-10-17T23:38:47.887Z,101617.81
2022-10-17T23:41:15.298Z,101606.66
2022-10-17T23:43:42.486Z,101607.78
2022-10-17T23:46:09.425Z,101607.38
2022-10-17T23:48:38.439Z,101609.22
2022-10-17T23:51:06.454Z,101598.06
2022-10-17T23:53:33.340Z,101603.53
2022-10-17T23:56:00.473Z,101604.72
2022-10-17T23:58:27.478Z,101595.94
